Terminal Aerodrome Forecast
Issued by NWS

Home | Current Version | Previous Version | Text Only | Print | Product List | Glossary On
Versions: 1 2 3 4 5 6 7 8 9 10 11 12
000
FTUS44 KLIX 011134
TAFMSY
TAF
KMSY 011134Z 0112/0212 03012KT P6SM FEW050 SCT250
     FM011300 03009KT P6SM SCT250
     FM012300 10006KT P6SM SCT250
     FM020200 17004KT P6SM SCT250=

USA.gov is the U.S. government's official web portal to all federal, state and local government web resources and services.